Avioradar koristi kolačiće da bi Vam omogućio jednostavnije i ugodnije korištenje stranice. 

AVIORADAR - Hrvatski zrakoplovni portal

METAR & TAF

[Source: ADDS]
METAR
LDZA 050100Z 31005KT 260V340 9999 -RA FEW025 19/17 Q1006 TEMPO 22015KT TSRA FEW040CB =
LDZA 042325Z 0500/0600 VRB02KT 9999 FEW040 TX22/0512Z TN16/0523Z TEMPO 0500/0506 4000 RA PROB40 TEMPO 0502/0516 30015G25KT 3000 TSRA FEW035CB BKN040 LDSP 050100Z AUTO 11008KT 070V130 CAVOK 28/22 Q1007 =
LDSP 042325Z 0500/0600 11010KT CAVOK TX31/0513Z TN23/0508Z BECMG 0503/0505 31009KT PROB40 TEMPO 0504/0510 30020G30KT 3000 TSRA FEW035CB SCT040 PROB30 TEMPO 0510/0518 23010KT PROB30 TEMPO 0517/0600 TSRA FEW035CB LDDU 050100Z 13019KT CAVOK 29/14 Q1011 =
LDDU 042325Z 0500/0600 13015KT CAVOK TX30/0513Z TN23/0523Z TEMPO 0500/0513 13020G30KT PROB30 TEMPO 0505/0516 TSRA FEW050CB SCT070 BECMG 0513/0515 24010KT BECMG 0516/0518 VRB02KT LDPL 050100Z 36005KT 300V040 CAVOK 23/15 Q1006 =
LDPL 042325Z 0500/0600 09006KT 9999 FEW040 TX26/0514Z TN18/0523Z PROB40 TEMPO 0500/0516 30015G25KT 3000 TSRA FEW035CB SCT040 BECMG 0504/0506 27012KT BECMG 0517/0519 07006KT LDZD 050100Z 11004KT CAVOK 22/13 Q1006 =
LDZD 042325Z 0500/0600 14008KT 9999 FEW050 TX26/0513Z TN17/0504Z BECMG 0502/0504 28010KT PROB40 TEMPO 0502/0507 30020G30KT 3000 TSRA FEW035CB BKN040 BECMG 0517/0519 VRB02KT PROB30 TEMPO 0517/0600 30015KT TSRA FEW035CB LDRI 050100Z 35005KT 9999 FEW050 23/19 Q1007 =
LDRI 042325Z 0500/0600 VRB02KT 9999 FEW040 TX24/0513Z TN18/0503Z PROB40 TEMPO 0501/0517 VRB15G25KT 3000 TSRA FEW030CB BKN040 LDOS 050100Z 08008KT CAVOK 19/15 Q1007 =
LDOS 042325Z 0500/0600 11010KT CAVOK TX27/0513Z TN16/0523Z BECMG 0506/0508 28008KT PROB40 TEMPO 0506/0509 30020G30KT 3000 TSRA FEW035CB BKN040 TEMPO 0512/0519 30015G25KT 3000 TSRA FEW035CB BKN040
TAF
LDZA 042325Z 0500/0600 VRB02KT 9999 FEW040 TX22/0512Z TN16/0523Z TEMPO 0500/0506 4000 RA PROB40 TEMPO 0502/0516 30015G25KT 3000 TSRA FEW035CB BKN040 =
LDSP 042325Z 0500/0600 11010KT CAVOK TX31/0513Z TN23/0508Z BECMG 0503/0505 31009KT PROB40 TEMPO 0504/0510 30020G30KT 3000 TSRA FEW035CB SCT040 PROB30 TEMPO 0510/0518 23010KT PROB30 TEMPO 0517/0600 TSRA FEW035CB =
LDDU 042325Z 0500/0600 13015KT CAVOK TX30/0513Z TN23/0523Z TEMPO 0500/0513 13020G30KT PROB30 TEMPO 0505/0516 TSRA FEW050CB SCT070 BECMG 0513/0515 24010KT BECMG 0516/0518 VRB02KT =
LDPL 042325Z 0500/0600 09006KT 9999 FEW040 TX26/0514Z TN18/0523Z PROB40 TEMPO 0500/0516 30015G25KT 3000 TSRA FEW035CB SCT040 BECMG 0504/0506 27012KT BECMG 0517/0519 07006KT =
LDZD 042325Z 0500/0600 14008KT 9999 FEW050 TX26/0513Z TN17/0504Z BECMG 0502/0504 28010KT PROB40 TEMPO 0502/0507 30020G30KT 3000 TSRA FEW035CB BKN040 BECMG 0517/0519 VRB02KT PROB30 TEMPO 0517/0600 30015KT TSRA FEW035CB =
LDRI 042325Z 0500/0600 VRB02KT 9999 FEW040 TX24/0513Z TN18/0503Z PROB40 TEMPO 0501/0517 VRB15G25KT 3000 TSRA FEW030CB BKN040 =
LDOS 042325Z 0500/0600 11010KT CAVOK TX27/0513Z TN16/0523Z BECMG 0506/0508 28008KT PROB40 TEMPO 0506/0509 30020G30KT 3000 TSRA FEW035CB BKN040 TEMPO 0512/0519 30015G25KT 3000 TSRA FEW035CB BKN040 =
SR / SS: 03:44 / 18:18 UTC (Zagreb 2021-08-05)